Main page
METAR-TAF:

METAR-TAF

Airports :

London Stansted Airport

London-Stansted, England

latitude: 51-53N, longitude: 000-14E, elevation: 106 m

Current weather observation

The report was made 39 minutes ago, at 19:20 UTC
Wind 3 kt from the North/Northwest
Temperature 19°C
Humidity 46%
Pressure 1026 hPa
Visibility 10 km or more

METAR: EGSS 231920Z AUTO 34003KT 9999 NCD 19/07 Q1026

Time: 20:59 (19:59 UTC)

Forecast

The report was made 3 hours and 4 minutes ago, at 16:55 UTC
Forecast valid from 23 at 18 UTC to 24 at 24 UTC
Wind 10 kt from the Northwest
Visibility 10 km or more
no clouds below 1500 m and no cumulonimbus
Probability 40%
from 23 at 18 UTC to 24 at 06 UTC
Wind 5 kt from variable directions
Becoming
from 24 at 09 UTC to 24 at 12 UTC
Wind 6 kt from the North
Becoming
from 24 at 18 UTC to 24 at 21 UTC
Wind 10 kt from the East/Southeast

TAF: EGSS 231655Z 2318/2424 31010KT CAVOK PROB40 2318/2406 VRB05KT BECMG 2409/2412 01006KT BECMG 2418/2421 11010KT

Weather observations and forecasts of more than 4000 airports (METAR and TAF reports).

The available stations are represented by yellow and red dots on the map.

Hover mouse over dot to see the name of the station.

Then click to see weather observations and forecasts.

To change the map : click on the green buttons with a black cross to zoom in, on the green button with a dash to zoom out, or on the green arrows for adjacent maps.


METAR-TAF: